sensor_id;sensor_type;location;lat;lon;timestamp;pressure;altitude;pressure_sealevel;temperature;humidity
44131;BME280;29792;48.726;9.248;2023-02-19T00:02:06;97414.72;;;10.91;100.00
44131;BME280;29792;48.726;9.248;2023-02-19T00:04:32;97417.38;;;10.90;100.00
44131;BME280;29792;48.726;9.248;2023-02-19T00:06:57;97419.84;;;10.91;100.00
44131;BME280;29792;48.726;9.248;2023-02-19T00:09:22;97416.47;;;10.91;100.00
44131;BME280;29792;48.726;9.248;2023-02-19T00:11:48;97418.22;;;10.90;100.00
44131;BME280;29792;48.726;9.248;2023-02-19T00:14:16;97418.22;;;10.90;100.00
44131;BME280;29792;48.726;9.248;2023-02-19T00:16:41;97412.47;;;10.87;100.00
44131;BME280;29792;48.726;9.248;2023-02-19T00:19:11;97416.47;;;10.91;100.00
44131;BME280;29792;48.726;9.248;2023-02-19T00:21:36;97412.25;;;10.90;99.91
44131;BME280;29792;48.726;9.248;2023-02-19T00:24:04;97408.16;;;10.87;99.89
44131;BME280;29792;48.726;9.248;2023-02-19T00:26:30;97408.06;;;10.89;100.00
44131;BME280;29792;48.726;9.248;2023-02-19T00:28:56;97409.00;;;10.88;99.79
44131;BME280;29792;48.726;9.248;2023-02-19T00:31:27;97404.56;;;10.90;99.70
44131;BME280;29792;48.726;9.248;2023-02-19T00:33:55;97401.31;;;10.88;99.53
44131;BME280;29792;48.726;9.248;2023-02-19T00:36:20;97397.25;;;10.85;99.26
44131;BME280;29792;48.726;9.248;2023-02-19T00:38:46;97398.06;;;10.86;99.35
44131;BME280;29792;48.726;9.248;2023-02-19T00:41:13;97410.16;;;10.84;99.15
44131;BME280;29792;48.726;9.248;2023-02-19T00:43:53;97410.97;;;10.84;98.54
44131;BME280;29792;48.726;9.248;2023-02-19T00:46:21;97410.16;;;10.84;98.48
44131;BME280;29792;48.726;9.248;2023-02-19T00:48:47;97413.66;;;10.83;98.29
44131;BME280;29792;48.726;9.248;2023-02-19T00:51:13;97413.53;;;10.84;98.23
44131;BME280;29792;48.726;9.248;2023-02-19T00:53:38;97419.50;;;10.85;97.92
44131;BME280;29792;48.726;9.248;2023-02-19T00:56:04;97417.03;;;10.83;97.30
44131;BME280;29792;48.726;9.248;2023-02-19T00:58:31;97420.53;;;10.82;97.46
44131;BME280;29792;48.726;9.248;2023-02-19T01:00:56;97412.03;;;10.82;97.54
44131;BME280;29792;48.726;9.248;2023-02-19T01:03:22;97408.75;;;10.80;97.10
44131;BME280;29792;48.726;9.248;2023-02-19T01:05:48;97411.44;;;10.78;97.26
44131;BME280;29792;48.726;9.248;2023-02-19T01:08:14;97399.56;;;10.77;97.55
44131;BME280;29792;48.726;9.248;2023-02-19T01:10:39;97391.88;;;10.77;97.72
44131;BME280;29792;48.726;9.248;2023-02-19T01:13:04;97386.84;;;10.76;97.30
44131;BME280;29792;48.726;9.248;2023-02-19T01:15:31;97392.91;;;10.75;97.53
44131;BME280;29792;48.726;9.248;2023-02-19T01:17:57;97387.06;;;10.73;97.83
44131;BME280;29792;48.726;9.248;2023-02-19T01:20:22;97377.91;;;10.70;98.40
44131;BME280;29792;48.726;9.248;2023-02-19T01:22:47;97377.28;;;10.66;98.43
44131;BME280;29792;48.726;9.248;2023-02-19T01:25:13;97375.66;;;10.65;98.69
44131;BME280;29792;48.726;9.248;2023-02-19T01:27:38;97380.06;;;10.63;98.79
44131;BME280;29792;48.726;9.248;2023-02-19T01:30:03;97376.69;;;10.63;98.84
44131;BME280;29792;48.726;9.248;2023-02-19T01:32:29;97373.44;;;10.61;98.47
44131;BME280;29792;48.726;9.248;2023-02-19T01:34:54;97372.63;;;10.60;98.93
44131;BME280;29792;48.726;9.248;2023-02-19T01:37:19;97374.47;;;10.58;99.36
44131;BME280;29792;48.726;9.248;2023-02-19T01:39:46;97373.78;;;10.56;100.00
44131;BME280;29792;48.726;9.248;2023-02-19T01:42:13;97363.63;;;10.55;100.00
44131;BME280;29792;48.726;9.248;2023-02-19T01:47:12;97360.72;;;10.48;100.00
44131;BME280;29792;48.726;9.248;2023-02-19T01:49:42;97360.25;;;10.43;100.00
44131;BME280;29792;48.726;9.248;2023-02-19T01:52:31;97363.94;;;10.39;100.00
44131;BME280;29792;48.726;9.248;2023-02-19T01:54:57;97358.97;;;10.38;100.00
44131;BME280;29792;48.726;9.248;2023-02-19T01:57:25;97366.75;;;10.36;100.00
44131;BME280;29792;48.726;9.248;2023-02-19T01:59:57;97360.00;;;10.35;100.00
44131;BME280;29792;48.726;9.248;2023-02-19T02:02:25;97356.72;;;10.33;100.00
44131;BME280;29792;48.726;9.248;2023-02-19T02:04:53;97357.66;;;10.32;100.00
44131;BME280;29792;48.726;9.248;2023-02-19T02:07:19;97355.09;;;10.32;100.00
44131;BME280;29792;48.726;9.248;2023-02-19T02:10:03;97355.91;;;10.32;100.00
44131;BME280;29792;48.726;9.248;2023-02-19T02:12:48;97348.22;;;10.32;100.00
44131;BME280;29792;48.726;9.248;2023-02-19T02:15:15;97347.41;;;10.32;100.00
44131;BME280;29792;48.726;9.248;2023-02-19T02:18:01;97360.31;;;10.30;100.00
44131;BME280;29792;48.726;9.248;2023-02-19T02:23:45;97350.22;;;10.29;100.00
44131;BME280;29792;48.726;9.248;2023-02-19T02:26:25;97352.06;;;10.27;100.00
44131;BME280;29792;48.726;9.248;2023-02-19T02:29:25;97349.50;;;10.27;100.00
44131;BME280;29792;48.726;9.248;2023-02-19T02:31:58;97352.28;;;10.24;100.00
44131;BME280;29792;48.726;9.248;2023-02-19T02:34:31;97342.16;;;10.22;100.00
44131;BME280;29792;48.726;9.248;2023-02-19T02:36:59;97335.53;;;10.20;100.00
44131;BME280;29792;48.726;9.248;2023-02-19T02:39:26;97333.16;;;10.17;100.00
44131;BME280;29792;48.726;9.248;2023-02-19T02:41:58;97335.81;;;10.15;100.00
44131;BME280;29792;48.726;9.248;2023-02-19T02:44:43;97327.31;;;10.15;100.00
44131;BME280;29792;48.726;9.248;2023-02-19T02:47:36;97332.69;;;10.12;100.00
44131;BME280;29792;48.726;9.248;2023-02-19T02:50:11;97325.94;;;10.11;100.00
44131;BME280;29792;48.726;9.248;2023-02-19T02:52:40;97320.91;;;10.09;100.00
44131;BME280;29792;48.726;9.248;2023-02-19T02:55:29;97320.91;;;10.09;100.00
44131;BME280;29792;48.726;9.248;2023-02-19T02:57:55;97326.97;;;10.08;100.00
44131;BME280;29792;48.726;9.248;2023-02-19T03:00:22;97321.03;;;10.08;100.00
44131;BME280;29792;48.726;9.248;2023-02-19T03:02:48;97327.88;;;10.07;100.00
44131;BME280;29792;48.726;9.248;2023-02-19T03:05:20;97328.00;;;10.06;100.00
44131;BME280;29792;48.726;9.248;2023-02-19T03:08:11;97323.59;;;10.08;100.00
44131;BME280;29792;48.726;9.248;2023-02-19T03:10:44;97325.44;;;10.06;100.00
44131;BME280;29792;48.726;9.248;2023-02-19T03:13:25;97326.13;;;10.08;100.00
44131;BME280;29792;48.726;9.248;2023-02-19T03:16:17;97315.91;;;10.08;100.00
44131;BME280;29792;48.726;9.248;2023-02-19T03:19:13;97309.97;;;10.07;100.00
44131;BME280;29792;48.726;9.248;2023-02-19T03:21:46;97315.44;;;10.03;100.00
44131;BME280;29792;48.726;9.248;2023-02-19T03:24:14;97314.81;;;9.99;100.00
44131;BME280;29792;48.726;9.248;2023-02-19T03:27:01;97311.09;;;9.92;100.00
44131;BME280;29792;48.726;9.248;2023-02-19T03:29:30;97313.06;;;9.88;100.00
44131;BME280;29792;48.726;9.248;2023-02-19T03:32:10;97318.59;;;9.82;100.00
44131;BME280;29792;48.726;9.248;2023-02-19T03:34:42;97320.06;;;9.74;100.00
44131;BME280;29792;48.726;9.248;2023-02-19T03:37:40;97316.13;;;9.70;100.00
44131;BME280;29792;48.726;9.248;2023-02-19T03:40:08;97314.84;;;9.64;100.00
44131;BME280;29792;48.726;9.248;2023-02-19T03:42:47;97313.28;;;9.62;100.00
44131;BME280;29792;48.726;9.248;2023-02-19T03:45:42;97320.50;;;9.56;100.00
44131;BME280;29792;48.726;9.248;2023-02-19T03:48:21;97318.25;;;9.52;100.00
44131;BME280;29792;48.726;9.248;2023-02-19T03:53:41;97319.59;;;9.45;100.00
44131;BME280;29792;48.726;9.248;2023-02-19T03:56:24;97329.22;;;9.41;100.00
44131;BME280;29792;48.726;9.248;2023-02-19T03:59:08;97325.16;;;9.39;100.00
44131;BME280;29792;48.726;9.248;2023-02-19T04:01:42;97327.00;;;9.37;100.00
44131;BME280;29792;48.726;9.248;2023-02-19T04:04:17;97328.84;;;9.35;100.00
44131;BME280;29792;48.726;9.248;2023-02-19T04:06:46;97328.84;;;9.35;100.00
44131;BME280;29792;48.726;9.248;2023-02-19T04:09:18;97332.44;;;9.32;100.00
44131;BME280;29792;48.726;9.248;2023-02-19T04:11:44;97335.78;;;9.33;100.00
44131;BME280;29792;48.726;9.248;2023-02-19T04:14:18;97338.56;;;9.30;100.00
44131;BME280;29792;48.726;9.248;2023-02-19T04:16:49;97336.75;;;9.32;100.00
44131;BME280;29792;48.726;9.248;2023-02-19T04:19:18;97340.22;;;9.31;100.00
44131;BME280;29792;48.726;9.248;2023-02-19T04:21:47;97353.09;;;9.29;100.00
44131;BME280;29792;48.726;9.248;2023-02-19T04:24:46;97350.53;;;9.29;100.00
44131;BME280;29792;48.726;9.248;2023-02-19T04:27:13;97349.72;;;9.29;100.00
44131;BME280;29792;48.726;9.248;2023-02-19T04:29:39;97350.53;;;9.29;100.00
44131;BME280;29792;48.726;9.248;2023-02-19T04:32:04;97347.97;;;9.29;100.00
44131;BME280;29792;48.726;9.248;2023-02-19T04:34:30;97343.59;;;9.31;100.00
44131;BME280;29792;48.726;9.248;2023-02-19T04:36:55;97356.47;;;9.30;100.00
44131;BME280;29792;48.726;9.248;2023-02-19T04:39:21;97365.16;;;9.27;100.00
44131;BME280;29792;48.726;9.248;2023-02-19T04:41:46;97365.16;;;9.27;100.00
44131;BME280;29792;48.726;9.248;2023-02-19T04:44:11;97365.38;;;9.24;100.00
44131;BME280;29792;48.726;9.248;2023-02-19T04:46:36;97364.56;;;9.24;100.00
44131;BME280;29792;48.726;9.248;2023-02-19T04:49:02;97370.69;;;9.21;100.00
44131;BME280;29792;48.726;9.248;2023-02-19T04:51:27;97376.72;;;9.20;100.00
44131;BME280;29792;48.726;9.248;2023-02-19T04:53:52;97377.22;;;9.25;100.00
44131;BME280;29792;48.726;9.248;2023-02-19T04:56:19;97388.25;;;9.26;100.00
44131;BME280;29792;48.726;9.248;2023-02-19T04:58:45;97381.41;;;9.26;100.00
44131;BME280;29792;48.726;9.248;2023-02-19T05:01:10;97392.47;;;9.27;100.00
44131;BME280;29792;48.726;9.248;2023-02-19T05:03:36;97389.09;;;9.26;100.00
44131;BME280;29792;48.726;9.248;2023-02-19T05:06:10;97390.94;;;9.24;100.00
44131;BME280;29792;48.726;9.248;2023-02-19T05:08:36;97391.75;;;9.25;100.00
44131;BME280;29792;48.726;9.248;2023-02-19T05:11:02;97400.22;;;9.25;100.00
44131;BME280;29792;48.726;9.248;2023-02-19T05:13:29;97392.47;;;9.27;100.00
44131;BME280;29792;48.726;9.248;2023-02-19T05:15:59;97389.81;;;9.28;100.00
44131;BME280;29792;48.726;9.248;2023-02-19T05:18:24;97389.59;;;9.31;100.00
44131;BME280;29792;48.726;9.248;2023-02-19T05:20:50;97394.09;;;9.28;100.00
44131;BME280;29792;48.726;9.248;2023-02-19T05:23:16;97395.13;;;9.25;100.00
44131;BME280;29792;48.726;9.248;2023-02-19T05:25:42;97406.88;;;9.28;100.00
44131;BME280;29792;48.726;9.248;2023-02-19T05:28:07;97407.38;;;9.33;100.00
44131;BME280;29792;48.726;9.248;2023-02-19T05:30:51;97402.69;;;9.39;100.00
44131;BME280;29792;48.726;9.248;2023-02-19T05:33:18;97401.34;;;9.34;100.00
44131;BME280;29792;48.726;9.248;2023-02-19T05:35:47;97391.00;;;9.35;100.00
44131;BME280;29792;48.726;9.248;2023-02-19T05:38:13;97395.41;;;9.33;100.00
44131;BME280;29792;48.726;9.248;2023-02-19T05:40:39;97402.25;;;9.33;100.00
44131;BME280;29792;48.726;9.248;2023-02-19T05:43:05;97398.28;;;9.29;100.00
44131;BME280;29792;48.726;9.248;2023-02-19T05:45:33;97407.69;;;9.28;100.00
44131;BME280;29792;48.726;9.248;2023-02-19T05:47:59;97408.72;;;9.26;100.00
44131;BME280;29792;48.726;9.248;2023-02-19T05:50:24;97407.78;;;9.27;100.00
44131;BME280;29792;48.726;9.248;2023-02-19T05:52:49;97407.91;;;9.25;100.00
44131;BME280;29792;48.726;9.248;2023-02-19T05:55:15;97409.63;;;9.25;100.00
44131;BME280;29792;48.726;9.248;2023-02-19T05:57:41;97416.81;;;9.19;100.00
44131;BME280;29792;48.726;9.248;2023-02-19T06:00:08;97412.50;;;9.20;100.00
44131;BME280;29792;48.726;9.248;2023-02-19T06:02:35;97411.78;;;9.18;100.00
44131;BME280;29792;48.726;9.248;2023-02-19T06:05:00;97413.44;;;9.19;100.00
44131;BME280;29792;48.726;9.248;2023-02-19T06:07:25;97423.97;;;9.14;100.00
44131;BME280;29792;48.726;9.248;2023-02-19T06:09:51;97423.25;;;9.12;100.00
44131;BME280;29792;48.726;9.248;2023-02-19T06:12:16;97428.47;;;9.11;100.00
44131;BME280;29792;48.726;9.248;2023-02-19T06:14:41;97423.47;;;9.09;100.00
44131;BME280;29792;48.726;9.248;2023-02-19T06:17:07;97431.34;;;9.06;100.00
44131;BME280;29792;48.726;9.248;2023-02-19T06:19:32;97439.94;;;9.05;100.00
44131;BME280;29792;48.726;9.248;2023-02-19T06:21:57;97447.69;;;9.04;100.00
44131;BME280;29792;48.726;9.248;2023-02-19T06:24:22;97456.78;;;8.95;100.00
44131;BME280;29792;48.726;9.248;2023-02-19T06:26:48;97464.84;;;8.89;100.00
44131;BME280;29792;48.726;9.248;2023-02-19T06:29:13;97466.28;;;8.80;100.00
44131;BME280;29792;48.726;9.248;2023-02-19T06:31:38;97461.03;;;8.69;100.00
44131;BME280;29792;48.726;9.248;2023-02-19T06:34:04;97463.91;;;8.65;100.00
44131;BME280;29792;48.726;9.248;2023-02-19T06:36:29;97469.31;;;8.60;100.00
44131;BME280;29792;48.726;9.248;2023-02-19T06:38:58;97475.44;;;8.58;100.00
44131;BME280;29792;48.726;9.248;2023-02-19T06:41:23;97480.84;;;8.53;100.00
44131;BME280;29792;48.726;9.248;2023-02-19T06:43:49;97481.88;;;8.51;100.00
44131;BME280;29792;48.726;9.248;2023-02-19T06:46:14;97481.22;;;8.47;100.00
44131;BME280;29792;48.726;9.248;2023-02-19T06:48:41;97480.41;;;8.47;100.00
44131;BME280;29792;48.726;9.248;2023-02-19T06:51:11;97488.06;;;8.47;100.00
44131;BME280;29792;48.726;9.248;2023-02-19T06:53:37;97494.00;;;8.47;100.00
44131;BME280;29792;48.726;9.248;2023-02-19T06:56:05;97502.38;;;8.49;100.00
44131;BME280;29792;48.726;9.248;2023-02-19T06:58:31;97493.59;;;8.53;100.00
44131;BME280;29792;48.726;9.248;2023-02-19T07:00:57;97491.69;;;8.57;100.00
44131;BME280;29792;48.726;9.248;2023-02-19T07:03:22;97496.69;;;8.58;100.00
44131;BME280;29792;48.726;9.248;2023-02-19T07:05:48;97505.78;;;8.62;100.00
44131;BME280;29792;48.726;9.248;2023-02-19T07:08:13;97510.69;;;8.65;100.00
44131;BME280;29792;48.726;9.248;2023-02-19T07:10:41;97518.28;;;8.67;100.00
44131;BME280;29792;48.726;9.248;2023-02-19T07:13:06;97518.06;;;8.70;100.00
44131;BME280;29792;48.726;9.248;2023-02-19T07:15:32;97530.72;;;8.71;100.00
44131;BME280;29792;48.726;9.248;2023-02-19T07:17:58;97521.34;;;8.72;100.00
44131;BME280;29792;48.726;9.248;2023-02-19T07:20:23;97526.44;;;8.72;100.00
44131;BME280;29792;48.726;9.248;2023-02-19T07:22:48;97529.72;;;8.74;100.00
44131;BME280;29792;48.726;9.248;2023-02-19T07:25:14;97533.19;;;8.73;100.00
44131;BME280;29792;48.726;9.248;2023-02-19T07:27:39;97535.00;;;8.71;100.00
44131;BME280;29792;48.726;9.248;2023-02-19T07:30:04;97541.25;;;8.67;100.00
44131;BME280;29792;48.726;9.248;2023-02-19T07:32:30;97547.28;;;8.66;100.00
44131;BME280;29792;48.726;9.248;2023-02-19T07:34:55;97543.06;;;8.65;100.00
44131;BME280;29792;48.726;9.248;2023-02-19T07:37:21;97534.41;;;8.67;100.00
44131;BME280;29792;48.726;9.248;2023-02-19T07:39:46;97539.31;;;8.70;100.00
44131;BME280;29792;48.726;9.248;2023-02-19T07:42:11;97542.59;;;8.72;100.00
44131;BME280;29792;48.726;9.248;2023-02-19T07:44:36;97536.47;;;8.75;100.00
44131;BME280;29792;48.726;9.248;2023-02-19T07:47:02;97539.63;;;8.78;100.00
44131;BME280;29792;48.726;9.248;2023-02-19T07:49:27;97529.22;;;8.82;100.00
44131;BME280;29792;48.726;9.248;2023-02-19T07:51:52;97526.59;;;8.83;100.00
44131;BME280;29792;48.726;9.248;2023-02-19T07:54:18;97532.19;;;8.88;100.00
44131;BME280;29792;48.726;9.248;2023-02-19T07:56:43;97538.72;;;8.92;100.00
44131;BME280;29792;48.726;9.248;2023-02-19T07:59:08;97530.88;;;8.95;100.00
44131;BME280;29792;48.726;9.248;2023-02-19T08:01:34;97539.19;;;8.99;100.00
44131;BME280;29792;48.726;9.248;2023-02-19T08:04:18;97530.38;;;9.03;100.00
44131;BME280;29792;48.726;9.248;2023-02-19T08:06:43;97525.81;;;9.08;100.00
44131;BME280;29792;48.726;9.248;2023-02-19T08:09:09;97523.66;;;9.14;100.00
44131;BME280;29792;48.726;9.248;2023-02-19T08:11:34;97514.84;;;9.18;100.00
44131;BME280;29792;48.726;9.248;2023-02-19T08:14:18;97516.41;;;9.21;99.27
44131;BME280;29792;48.726;9.248;2023-02-19T08:16:50;97512.81;;;9.24;97.21
44131;BME280;29792;48.726;9.248;2023-02-19T08:19:16;97538.88;;;9.29;96.26
44131;BME280;29792;48.726;9.248;2023-02-19T08:21:41;97538.47;;;9.35;96.55
44131;BME280;29792;48.726;9.248;2023-02-19T08:24:07;97539.09;;;9.38;96.10
44131;BME280;29792;48.726;9.248;2023-02-19T08:26:32;97546.69;;;9.40;96.13
44131;BME280;29792;48.726;9.248;2023-02-19T08:28:57;97566.09;;;9.42;96.32
44131;BME280;29792;48.726;9.248;2023-02-19T08:31:23;97571.09;;;9.44;95.96
44131;BME280;29792;48.726;9.248;2023-02-19T08:33:49;97576.94;;;9.46;96.05
44131;BME280;29792;48.726;9.248;2023-02-19T08:36:14;97591.75;;;9.41;96.76
44131;BME280;29792;48.726;9.248;2023-02-19T08:38:39;97591.44;;;9.33;97.54
44131;BME280;29792;48.726;9.248;2023-02-19T08:41:23;97603.09;;;9.24;98.35
44131;BME280;29792;48.726;9.248;2023-02-19T08:43:48;97600.66;;;9.23;98.77
44131;BME280;29792;48.726;9.248;2023-02-19T08:46:14;97597.19;;;9.24;99.04
44131;BME280;29792;48.726;9.248;2023-02-19T08:48:39;97597.78;;;9.27;99.20
44131;BME280;29792;48.726;9.248;2023-02-19T08:51:09;97600.25;;;9.29;99.44
44131;BME280;29792;48.726;9.248;2023-02-19T08:53:35;97610.38;;;9.30;99.61
44131;BME280;29792;48.726;9.248;2023-02-19T08:56:15;97616.31;;;9.31;99.48
44131;BME280;29792;48.726;9.248;2023-02-19T08:58:41;97618.78;;;9.32;99.37
44131;BME280;29792;48.726;9.248;2023-02-19T09:01:15;97621.41;;;9.31;98.93
44131;BME280;29792;48.726;9.248;2023-02-19T09:03:42;97626.53;;;9.31;98.94
44131;BME280;29792;48.726;9.248;2023-02-19T09:06:12;97626.00;;;9.26;98.43
44131;BME280;29792;48.726;9.248;2023-02-19T09:08:38;97626.81;;;9.26;98.70
44131;BME280;29792;48.726;9.248;2023-02-19T09:11:04;97629.38;;;9.26;98.48
44131;BME280;29792;48.726;9.248;2023-02-19T09:13:31;97632.75;;;9.27;98.42
44131;BME280;29792;48.726;9.248;2023-02-19T09:15:56;97634.38;;;9.28;98.52
44131;BME280;29792;48.726;9.248;2023-02-19T09:18:22;97631.66;;;9.31;98.53
44131;BME280;29792;48.726;9.248;2023-02-19T09:20:48;97639.72;;;9.37;98.50
44131;BME280;29792;48.726;9.248;2023-02-19T09:23:14;97643.00;;;9.39;96.75
44131;BME280;29792;48.726;9.248;2023-02-19T09:25:39;97650.47;;;9.42;96.38
44131;BME280;29792;48.726;9.248;2023-02-19T09:28:04;97645.06;;;9.47;96.45
44131;BME280;29792;48.726;9.248;2023-02-19T09:30:30;97645.88;;;9.47;95.09
44131;BME280;29792;48.726;9.248;2023-02-19T09:32:55;97662.56;;;9.53;94.85
44131;BME280;29792;48.726;9.248;2023-02-19T09:35:20;97653.88;;;9.55;93.22
44131;BME280;29792;48.726;9.248;2023-02-19T09:37:45;97658.69;;;9.60;93.04
44131;BME280;29792;48.726;9.248;2023-02-19T09:40:11;97658.50;;;9.63;91.88
44131;BME280;29792;48.726;9.248;2023-02-19T09:42:39;97648.16;;;9.65;91.57
44131;BME280;29792;48.726;9.248;2023-02-19T09:45:05;97654.78;;;9.67;90.44
44131;BME280;29792;48.726;9.248;2023-02-19T09:47:32;97651.94;;;9.72;89.83
44131;BME280;29792;48.726;9.248;2023-02-19T09:50:06;97656.75;;;9.76;89.49
44131;BME280;29792;48.726;9.248;2023-02-19T09:52:45;97658.06;;;9.82;87.98
44131;BME280;29792;48.726;9.248;2023-02-19T09:55:29;97668.75;;;9.88;86.95
44131;BME280;29792;48.726;9.248;2023-02-19T09:57:56;97661.56;;;9.93;85.77
44131;BME280;29792;48.726;9.248;2023-02-19T10:00:26;97686.72;;;10.00;85.60
44131;BME280;29792;48.726;9.248;2023-02-19T10:02:54;97686.63;;;10.01;84.83
44131;BME280;29792;48.726;9.248;2023-02-19T10:05:23;97674.34;;;10.06;84.39
44131;BME280;29792;48.726;9.248;2023-02-19T10:07:51;97657.97;;;10.09;83.77
44131;BME280;29792;48.726;9.248;2023-02-19T10:10:23;97658.25;;;10.17;84.12
44131;BME280;29792;48.726;9.248;2023-02-19T10:12:51;97649.78;;;10.29;84.42
44131;BME280;29792;48.726;9.248;2023-02-19T10:15:24;97652.81;;;10.47;84.58
44131;BME280;29792;48.726;9.248;2023-02-19T10:17:51;97646.66;;;10.62;83.35
44131;BME280;29792;48.726;9.248;2023-02-19T10:20:19;97662.78;;;10.75;81.91
44131;BME280;29792;48.726;9.248;2023-02-19T10:22:56;97660.78;;;10.91;81.37
44131;BME280;29792;48.726;9.248;2023-02-19T10:25:23;97653.94;;;11.03;81.35
44131;BME280;29792;48.726;9.248;2023-02-19T10:27:48;97658.00;;;11.18;80.60
44131;BME280;29792;48.726;9.248;2023-02-19T10:30:19;97654.38;;;11.21;79.51
44131;BME280;29792;48.726;9.248;2023-02-19T10:33:07;97663.94;;;11.19;79.72
44131;BME280;29792;48.726;9.248;2023-02-19T10:35:48;97670.56;;;11.21;79.41
44131;BME280;29792;48.726;9.248;2023-02-19T10:38:16;97678.59;;;11.17;78.52
44131;BME280;29792;48.726;9.248;2023-02-19T10:40:45;97680.34;;;11.16;78.93
44131;BME280;29792;48.726;9.248;2023-02-19T10:43:25;97693.63;;;11.10;78.56
44131;BME280;29792;48.726;9.248;2023-02-19T10:45:58;97692.19;;;11.06;77.44
44131;BME280;29792;48.726;9.248;2023-02-19T10:48:37;97685.41;;;11.05;77.85
44131;BME280;29792;48.726;9.248;2023-02-19T10:51:08;97691.47;;;11.04;77.44
44131;BME280;29792;48.726;9.248;2023-02-19T10:53:45;97688.25;;;11.13;78.46
44131;BME280;29792;48.726;9.248;2023-02-19T10:56:23;97692.06;;;11.31;77.77
44131;BME280;29792;48.726;9.248;2023-02-19T10:58:50;97683.72;;;11.52;78.04
44131;BME280;29792;48.726;9.248;2023-02-19T11:01:17;97689.69;;;11.87;76.79
44131;BME280;29792;48.726;9.248;2023-02-19T11:03:44;97682.25;;;12.17;74.46
44131;BME280;29792;48.726;9.248;2023-02-19T11:06:12;97686.69;;;12.27;71.29
44131;BME280;29792;48.726;9.248;2023-02-19T11:08:50;97691.03;;;12.48;71.70
44131;BME280;29792;48.726;9.248;2023-02-19T11:11:36;97692.09;;;12.46;70.46
44131;BME280;29792;48.726;9.248;2023-02-19T11:14:18;97681.22;;;12.42;69.84
44131;BME280;29792;48.726;9.248;2023-02-19T11:16:46;97677.28;;;12.81;71.75
44131;BME280;29792;48.726;9.248;2023-02-19T11:19:37;97682.53;;;13.02;66.95
44131;BME280;29792;48.726;9.248;2023-02-19T11:22:37;97685.66;;;12.63;67.25
44131;BME280;29792;48.726;9.248;2023-02-19T11:27:34;97685.50;;;12.08;67.03
44131;BME280;29792;48.726;9.248;2023-02-19T11:35:40;97693.00;;;11.65;68.66
44131;BME280;29792;48.726;9.248;2023-02-19T11:38:09;97687.50;;;11.59;68.56
44131;BME280;29792;48.726;9.248;2023-02-19T11:40:44;97682.50;;;11.57;70.72
44131;BME280;29792;48.726;9.248;2023-02-19T11:53:28;97708.81;;;11.48;70.19
44131;BME280;29792;48.726;9.248;2023-02-19T11:56:01;97710.19;;;11.41;69.71
44131;BME280;29792;48.726;9.248;2023-02-19T12:26:22;97685.91;;;11.34;71.08
44131;BME280;29792;48.726;9.248;2023-02-19T12:39:45;97687.16;;;11.63;70.70
44131;BME280;29792;48.726;9.248;2023-02-19T12:42:32;97689.72;;;11.63;67.96
44131;BME280;29792;48.726;9.248;2023-02-19T12:45:06;97690.03;;;11.47;68.37
44131;BME280;29792;48.726;9.248;2023-02-19T12:47:41;97701.06;;;11.37;68.28
44131;BME280;29792;48.726;9.248;2023-02-19T12:50:17;97698.47;;;11.26;69.19
44131;BME280;29792;48.726;9.248;2023-02-19T12:52:46;97694.56;;;11.20;69.62
44131;BME280;29792;48.726;9.248;2023-02-19T12:57:42;97675.41;;;11.37;70.06
44131;BME280;29792;48.726;9.248;2023-02-19T13:05:43;97690.75;;;11.50;68.12
44131;BME280;29792;48.726;9.248;2023-02-19T13:13:20;97684.50;;;11.65;66.88
44131;BME280;29792;48.726;9.248;2023-02-19T13:15:50;97690.19;;;11.57;67.28
44131;BME280;29792;48.726;9.248;2023-02-19T13:18:30;97684.44;;;11.42;66.82
44131;BME280;29792;48.726;9.248;2023-02-19T13:20:58;97684.16;;;11.34;67.71
44131;BME280;29792;48.726;9.248;2023-02-19T13:23:27;97693.72;;;11.32;67.79
44131;BME280;29792;48.726;9.248;2023-02-19T13:37:43;97685.78;;;11.35;68.99
44131;BME280;29792;48.726;9.248;2023-02-19T13:40:28;97709.81;;;11.34;68.46
44131;BME280;29792;48.726;9.248;2023-02-19T13:42:56;97689.03;;;11.26;67.77
44131;BME280;29792;48.726;9.248;2023-02-19T13:45:33;97682.00;;;11.17;68.41
44131;BME280;29792;48.726;9.248;2023-02-19T13:48:11;97682.41;;;11.11;68.98
44131;BME280;29792;48.726;9.248;2023-02-19T13:50:37;97677.53;;;11.08;69.69
44131;BME280;29792;48.726;9.248;2023-02-19T13:56:35;97670.69;;;10.96;69.69
44131;BME280;29792;48.726;9.248;2023-02-19T14:04:39;97666.88;;;10.78;69.78
44131;BME280;29792;48.726;9.248;2023-02-19T14:14:33;97668.81;;;10.74;71.82
44131;BME280;29792;48.726;9.248;2023-02-19T14:28:01;97669.09;;;10.82;71.04
44131;BME280;29792;48.726;9.248;2023-02-19T14:30:30;97685.50;;;10.80;70.18
44131;BME280;29792;48.726;9.248;2023-02-19T14:32:56;97688.22;;;10.78;70.00
44131;BME280;29792;48.726;9.248;2023-02-19T14:35:25;97698.56;;;10.77;69.94
44131;BME280;29792;48.726;9.248;2023-02-19T14:37:54;97700.41;;;10.75;70.15
44131;BME280;29792;48.726;9.248;2023-02-19T14:40:22;97698.03;;;10.71;70.06
44131;BME280;29792;48.726;9.248;2023-02-19T14:42:51;97707.59;;;10.69;71.28
44131;BME280;29792;48.726;9.248;2023-02-19T14:45:18;97703.41;;;10.68;70.88
44131;BME280;29792;48.726;9.248;2023-02-19T14:47:45;97695.81;;;10.67;71.07
44131;BME280;29792;48.726;9.248;2023-02-19T14:50:16;97695.00;;;10.66;70.80
44131;BME280;29792;48.726;9.248;2023-02-19T14:52:47;97694.06;;;10.67;71.09
44131;BME280;29792;48.726;9.248;2023-02-19T14:55:22;97717.03;;;10.69;71.02
44131;BME280;29792;48.726;9.248;2023-02-19T14:57:51;97723.66;;;10.71;71.76
44131;BME280;29792;48.726;9.248;2023-02-19T15:02:46;97712.50;;;10.73;71.71
44131;BME280;29792;48.726;9.248;2023-02-19T15:05:16;97714.47;;;10.69;71.59
44131;BME280;29792;48.726;9.248;2023-02-19T15:07:42;97713.03;;;10.65;71.80
44131;BME280;29792;48.726;9.248;2023-02-19T15:10:10;97715.81;;;10.62;71.44
44131;BME280;29792;48.726;9.248;2023-02-19T15:15:16;97732.50;;;10.55;71.66
44131;BME280;29792;48.726;9.248;2023-02-19T15:17:42;97745.44;;;10.53;72.48